Time;durP1;ratioP1;P1;durP2;ratioP2;P2;SDS_P1;SDS_P2;PMS_P1;PMS_P2;Temp;Humidity;BMP_temperature;BMP_pressure;BME280_temperature;BME280_humidity;BME280_pressure;Samples;Min_cycle;Max_cycle;Signal;HPM_P1;HPM_P2
2021/12/23 00:01:06;;;;;;;43.17;23.08;;;6.30;99.90;;;;;;5018898;28;20045;-88
2021/12/23 00:03:33;;;;;;;42.05;19.92;;;6.20;99.90;;;;;;5018569;28;20046;-88
2021/12/23 00:06:00;;;;;;;38.08;22.10;;;6.20;99.90;;;;;;5027453;28;20095;-88
2021/12/23 00:08:28;;;;;;;37.72;21.45;;;6.20;99.90;;;;;;5038280;28;20534;-90
2021/12/23 00:10:55;;;;;;;37.95;21.02;;;6.20;99.90;;;;;;5038107;28;20049;-87
2021/12/23 00:13:23;;;;;;;42.47;22.42;;;6.20;99.90;;;;;;5037664;28;20057;-87
2021/12/23 00:16:03;;;;;;;41.45;24.10;;;6.20;99.90;;;;;;5021976;28;20056;-88
2021/12/23 00:18:44;;;;;;;46.55;23.58;;;6.00;99.90;;;;;;5016878;28;20526;-87
2021/12/23 00:24:09;;;;;;;41.95;21.55;;;6.00;99.90;;;;;;4956719;29;20169;-88
2021/12/23 00:26:36;;;;;;;47.25;21.98;;;6.20;99.90;;;;;;5017406;28;20045;-88
2021/12/23 00:29:03;;;;;;;46.60;21.77;;;6.20;99.90;;;;;;5036683;28;20131;-88
2021/12/23 00:31:31;;;;;;;47.08;22.98;;;6.20;99.90;;;;;;5031388;28;20092;-89
2021/12/23 00:33:58;;;;;;;49.87;24.27;;;6.30;99.90;;;;;;5017464;28;20292;-89
2021/12/23 00:36:25;;;;;;;41.17;23.42;;;6.10;99.90;;;;;;5016454;28;20432;-89
2021/12/23 00:38:55;;;;;;;49.17;23.92;;;6.10;99.90;;;;;;5017479;28;20049;-88
2021/12/23 00:41:23;;;;;;;44.75;23.42;;;6.10;99.90;;;;;;5036257;28;20132;-88
2021/12/23 00:43:50;;;;;;;38.90;22.50;;;6.20;99.90;;;;;;5036335;28;20526;-88
2021/12/23 00:46:17;;;;;;;46.85;24.85;;;6.10;99.90;;;;;;5036108;28;20037;-88
2021/12/23 00:48:46;;;;;;;44.75;23.67;;;6.20;99.90;;;;;;5036920;28;20492;-88
2021/12/23 00:51:14;;;;;;;41.87;23.93;;;6.30;99.90;;;;;;5035683;28;20515;-88
2021/12/23 00:53:41;;;;;;;41.97;23.45;;;6.30;99.90;;;;;;5032321;28;20054;-88
2021/12/23 00:56:11;;;;;;;45.78;24.30;;;6.60;99.90;;;;;;5016000;28;20053;-89
2021/12/23 00:58:38;;;;;;;51.45;26.23;;;6.20;99.90;;;;;;5015845;28;20132;-87
2021/12/23 01:01:05;;;;;;;43.28;24.25;;;6.20;99.90;;;;;;5016068;28;20109;-87
2021/12/23 01:03:32;;;;;;;44.60;22.40;;;6.30;99.90;;;;;;5034484;28;20467;-88
2021/12/23 01:06:01;;;;;;;42.33;22.42;;;6.30;99.90;;;;;;5035356;28;20063;-87
2021/12/23 01:08:29;;;;;;;44.53;22.77;;;6.40;99.90;;;;;;5035660;28;20504;-87
2021/12/23 01:10:58;;;;;;;41.90;24.77;;;6.40;99.90;;;;;;5035669;28;20049;-88
2021/12/23 01:13:28;;;;;;;50.10;26.42;;;6.30;99.90;;;;;;5017643;28;20054;-88
2021/12/23 01:16:02;;;;;;;45.00;22.75;;;6.20;99.90;;;;;;5016006;28;20042;-89
2021/12/23 01:18:31;;;;;;;47.20;23.77;;;6.20;99.90;;;;;;5015385;28;20140;-88
2021/12/23 01:21:14;;;;;;;;;;;6.30;99.90;;;;;;5016002;28;20456;-88
2021/12/23 01:23:44;;;;;;;41.38;22.73;;;6.40;99.90;;;;;;5034583;28;19921;-88
2021/12/23 01:26:17;;;;;;;43.42;23.65;;;6.30;99.90;;;;;;5035336;28;20050;-89
2021/12/23 01:28:44;;;;;;;42.03;22.40;;;6.60;99.90;;;;;;5035743;28;20045;-88
2021/12/23 01:31:11;;;;;;;39.50;23.67;;;6.40;99.90;;;;;;5039633;28;20050;-85
2021/12/23 01:33:38;;;;;;;47.95;24.58;;;6.50;99.90;;;;;;5044372;28;20084;-87
2021/12/23 01:36:06;;;;;;;54.70;25.45;;;6.40;99.90;;;;;;5045533;28;20045;-87
2021/12/23 01:38:33;;;;;;;49.50;27.20;;;6.40;99.90;;;;;;5041966;28;20049;-88
2021/12/23 01:41:02;;;;;;;48.65;24.60;;;6.40;99.90;;;;;;5040450;28;20060;-89
2021/12/23 01:43:29;;;;;;;47.30;24.23;;;6.10;99.90;;;;;;5039511;28;20053;-88
2021/12/23 01:45:56;;;;;;;47.80;25.77;;;6.40;99.90;;;;;;5039818;28;20423;-89
2021/12/23 01:48:23;;;;;;;47.15;23.67;;;6.40;99.90;;;;;;5039660;28;20049;-90
2021/12/23 01:50:51;;;;;;;45.38;25.75;;;6.40;99.90;;;;;;5039582;28;20045;-89
2021/12/23 01:53:18;;;;;;;44.25;24.58;;;6.30;99.90;;;;;;5039449;28;20042;-88
2021/12/23 01:55:46;;;;;;;49.55;25.45;;;6.40;99.90;;;;;;5026258;28;20050;-89
2021/12/23 01:58:15;;;;;;;48.88;24.70;;;6.60;99.90;;;;;;5019713;28;20046;-88
2021/12/23 02:00:45;;;;;;;51.00;24.65;;;6.40;99.90;;;;;;5019815;28;20046;-89
2021/12/23 02:03:13;;;;;;;51.30;26.40;;;6.50;99.90;;;;;;5036927;28;20056;-88
2021/12/23 02:05:40;;;;;;;46.85;22.75;;;6.70;99.90;;;;;;5028466;28;20054;-88
2021/12/23 02:08:08;;;;;;;44.50;25.25;;;6.50;99.90;;;;;;5021033;28;20045;-88
2021/12/23 02:10:36;;;;;;;51.60;30.52;;;6.60;99.90;;;;;;5019993;28;20112;-89
2021/12/23 02:13:03;;;;;;;48.58;27.02;;;6.40;99.90;;;;;;5019459;28;20492;-89
2021/12/23 02:15:31;;;;;;;51.72;28.02;;;6.30;99.90;;;;;;5018722;28;20053;-88
2021/12/23 02:17:59;;;;;;;53.08;26.98;;;6.40;99.90;;;;;;5032599;28;20099;-87
2021/12/23 02:20:31;;;;;;;50.92;26.33;;;6.40;99.90;;;;;;5038170;28;20049;-89
2021/12/23 02:22:58;;;;;;;51.20;27.88;;;6.40;99.90;;;;;;5038397;28;20203;-88
2021/12/23 02:25:26;;;;;;;45.97;25.70;;;6.30;99.90;;;;;;5038138;28;20085;-88
2021/12/23 02:27:55;;;;;;;53.35;27.98;;;6.50;99.90;;;;;;5027966;28;20053;-88
2021/12/23 02:30:25;;;;;;;51.85;27.63;;;6.40;99.90;;;;;;5018571;28;20088;-88
2021/12/23 02:32:53;;;;;;;45.95;26.08;;;6.30;99.90;;;;;;5018231;28;20100;-88
2021/12/23 02:35:22;;;;;;;53.20;28.38;;;6.40;99.90;;;;;;5018748;28;20104;-88
2021/12/23 02:37:51;;;;;;;56.95;28.27;;;6.50;99.90;;;;;;5028052;28;20049;-87
2021/12/23 02:40:27;;;;;;;49.55;26.20;;;6.40;99.90;;;;;;5037703;28;20049;-88
2021/12/23 02:42:55;;;;;;;50.70;28.33;;;6.40;99.90;;;;;;5037763;28;20041;-86
2021/12/23 02:45:22;;;;;;;57.63;28.83;;;6.30;99.90;;;;;;5038671;28;20053;-87
2021/12/23 02:47:49;;;;;;;47.63;26.30;;;6.30;99.90;;;;;;5037418;28;20042;-90
2021/12/23 02:50:17;;;;;;;55.72;25.73;;;6.40;99.90;;;;;;5037022;28;20050;-89
2021/12/23 02:52:45;;;;;;;48.28;24.73;;;6.30;99.90;;;;;;5037728;28;20041;-89
2021/12/23 02:55:13;;;;;;;53.15;28.23;;;6.40;99.90;;;;;;5037745;28;20049;-89
2021/12/23 02:57:42;;;;;;;50.97;28.05;;;6.50;99.90;;;;;;5037332;28;20045;-88
2021/12/23 03:00:10;;;;;;;51.10;24.80;;;6.50;99.90;;;;;;5038220;28;20056;-88
2021/12/23 03:02:41;;;;;;;50.00;24.60;;;6.60;99.90;;;;;;5037525;28;20470;-88
2021/12/23 03:05:09;;;;;;;50.20;24.15;;;6.50;99.90;;;;;;5037329;28;20049;-88
2021/12/23 03:07:37;;;;;;;52.60;25.98;;;6.70;99.90;;;;;;5037556;28;20049;-88
2021/12/23 03:10:06;;;;;;;52.50;27.48;;;6.70;99.90;;;;;;5029773;28;20042;-87
2021/12/23 03:12:35;;;;;;;44.55;26.45;;;6.70;99.90;;;;;;5017275;28;20057;-88
2021/12/23 03:15:02;;;;;;;;;;;6.70;99.90;;;;;;5018242;28;20100;-88
2021/12/23 03:17:31;;;;;;;50.72;26.83;;;6.60;99.90;;;;;;5017302;28;19925;-87
2021/12/23 03:19:58;;;;;;;48.03;27.00;;;6.50;99.90;;;;;;5022664;28;20050;-85
2021/12/23 03:22:26;;;;;;;48.95;24.95;;;6.50;99.90;;;;;;5036912;28;20042;-87
2021/12/23 03:24:53;;;;;;;48.15;25.67;;;6.60;99.90;;;;;;5046829;28;20050;-87
2021/12/23 03:27:20;;;;;;;49.25;25.75;;;6.70;99.90;;;;;;5043456;28;20045;-87
2021/12/23 03:29:48;;;;;;;48.95;25.50;;;6.80;99.90;;;;;;5037371;28;20045;-87
2021/12/23 03:32:18;;;;;;;47.97;27.08;;;6.80;99.90;;;;;;5027610;28;20104;-88
2021/12/23 03:34:48;;;;;;;50.88;25.60;;;6.70;99.90;;;;;;5035185;28;20095;-88
2021/12/23 03:37:15;;;;;;;54.90;26.90;;;6.90;99.90;;;;;;5036600;28;20553;-88
2021/12/23 03:39:42;;;;;;;44.70;27.90;;;6.60;99.90;;;;;;5035521;28;20053;-86
2021/12/23 03:42:10;;;;;;;45.53;25.98;;;6.60;99.90;;;;;;5020103;28;20050;-88
2021/12/23 03:44:37;;;;;;;50.30;27.85;;;6.70;99.90;;;;;;5016279;28;20045;-87
2021/12/23 03:47:06;;;;;;;48.90;25.85;;;6.70;99.90;;;;;;5016278;28;20103;-88
2021/12/23 03:49:33;;;;;;;;;;;6.70;99.90;;;;;;5017094;28;20086;-87
2021/12/23 03:52:00;;;;;;;50.50;25.70;;;6.70;99.90;;;;;;5029997;28;19921;-89
2021/12/23 03:54:27;;;;;;;50.67;26.50;;;6.70;99.90;;;;;;5036103;28;20407;-89
2021/12/23 03:56:54;;;;;;;54.92;26.27;;;6.70;99.90;;;;;;5035872;28;20060;-89
2021/12/23 03:59:21;;;;;;;51.15;24.55;;;6.70;99.90;;;;;;5036322;28;20072;-88
2021/12/23 04:01:48;;;;;;;49.08;25.40;;;6.70;99.90;;;;;;5026352;28;20049;-88
2021/12/23 04:04:17;;;;;;;52.85;28.00;;;6.80;99.90;;;;;;5016412;28;20053;-89
2021/12/23 04:06:45;;;;;;;52.22;27.13;;;6.80;99.90;;;;;;5016261;28;20046;-87
2021/12/23 04:09:12;;;;;;;51.00;27.25;;;6.80;99.90;;;;;;5018601;28;20046;-88
2021/12/23 04:11:39;;;;;;;49.03;26.10;;;6.80;99.90;;;;;;5027525;28;20045;-88
2021/12/23 04:14:06;;;;;;;52.00;26.38;;;6.70;99.90;;;;;;5016113;28;20050;-88
2021/12/23 04:16:33;;;;;;;50.00;25.80;;;6.80;99.90;;;;;;5015906;28;20070;-88
2021/12/23 04:19:05;;;;;;;46.30;26.30;;;6.80;99.90;;;;;;5015473;28;20054;-89
2021/12/23 04:21:33;;;;;;;49.85;26.73;;;6.80;99.90;;;;;;5019195;28;20393;-88
2021/12/23 04:24:00;;;;;;;48.75;27.75;;;6.70;99.90;;;;;;5028897;28;20041;-88
2021/12/23 04:26:28;;;;;;;55.50;29.25;;;6.80;99.90;;;;;;5034810;28;20049;-88
2021/12/23 04:28:55;;;;;;;48.97;27.58;;;6.70;99.90;;;;;;5035358;28;20072;-89
2021/12/23 04:31:24;;;;;;;51.15;27.25;;;6.70;99.90;;;;;;5035190;28;20049;-88
2021/12/23 04:33:54;;;;;;;48.53;26.83;;;7.20;99.90;;;;;;5026438;28;20073;-89
2021/12/23 04:36:23;;;;;;;54.17;27.55;;;6.70;99.90;;;;;;5015234;28;20574;-87
2021/12/23 04:38:51;;;;;;;;;;;6.70;99.90;;;;;;5015328;28;20116;-88
2021/12/23 04:41:18;;;;;;;49.40;26.90;;;6.70;99.90;;;;;;5033881;28;19921;-87
2021/12/23 04:43:45;;;;;;;54.20;27.90;;;6.70;99.90;;;;;;5027577;28;20050;-88
2021/12/23 04:46:12;;;;;;;55.72;29.23;;;6.60;99.90;;;;;;5014979;28;20594;-87
2021/12/23 04:48:40;;;;;;;52.70;27.45;;;6.70;99.90;;;;;;5015521;28;20050;-88
2021/12/23 04:51:07;;;;;;;48.22;28.42;;;6.40;99.90;;;;;;5014876;28;20057;-88
2021/12/23 04:53:34;;;;;;;51.60;29.30;;;6.80;99.90;;;;;;5017048;28;20049;-89
2021/12/23 04:56:03;;;;;;;51.40;27.95;;;6.70;99.90;;;;;;5034547;28;20056;-87
2021/12/23 04:58:30;;;;;;;58.78;30.00;;;6.70;99.90;;;;;;5034856;28;20041;-88
2021/12/23 05:00:57;;;;;;;52.20;29.90;;;6.70;99.90;;;;;;5034635;28;20476;-88
2021/12/23 05:03:27;;;;;;;50.67;28.73;;;6.90;99.90;;;;;;5033216;28;20049;-88
2021/12/23 05:05:54;;;;;;;56.58;29.40;;;6.80;99.90;;;;;;5015454;28;20046;-87
2021/12/23 05:08:21;;;;;;;54.72;28.98;;;6.80;99.90;;;;;;5015478;28;20046;-87
2021/12/23 05:10:48;;;;;;;57.80;29.35;;;6.80;99.90;;;;;;5014816;28;20634;-87
2021/12/23 05:13:17;;;;;;;49.13;26.23;;;6.80;99.90;;;;;;5016257;28;20088;-87
2021/12/23 05:15:44;;;;;;;46.58;26.77;;;6.80;99.90;;;;;;5019949;28;20092;-87
2021/12/23 05:18:11;;;;;;;52.42;28.30;;;7.00;99.90;;;;;;5044783;28;20041;-85
2021/12/23 05:20:38;;;;;;;52.75;25.75;;;7.00;99.90;;;;;;5048446;28;20046;-88
2021/12/23 05:23:05;;;;;;;49.47;26.52;;;7.20;99.90;;;;;;5049530;28;20053;-86
2021/12/23 05:25:32;;;;;;;48.60;26.90;;;7.20;99.90;;;;;;5046257;28;20450;-87
2021/12/23 05:28:00;;;;;;;52.60;26.63;;;7.30;99.90;;;;;;5038501;28;20103;-87
2021/12/23 05:30:29;;;;;;;49.33;27.52;;;7.30;99.90;;;;;;5038397;28;20045;-89
2021/12/23 05:32:59;;;;;;;52.85;26.55;;;7.30;99.90;;;;;;5037893;28;20345;-88
2021/12/23 05:35:26;;;;;;;47.35;24.80;;;7.20;99.90;;;;;;5038300;28;20045;-88
2021/12/23 05:37:54;;;;;;;48.35;25.42;;;7.30;99.90;;;;;;5038424;28;20049;-89
2021/12/23 05:40:24;;;;;;;46.25;25.13;;;7.30;99.90;;;;;;5035014;28;20042;-88
2021/12/23 05:42:53;;;;;;;51.53;25.50;;;7.40;99.90;;;;;;5018626;28;20046;-88
2021/12/23 05:45:21;;;;;;;57.58;29.75;;;7.40;99.90;;;;;;5017951;28;20054;-88
2021/12/23 05:47:52;;;;;;;55.13;29.80;;;7.30;99.90;;;;;;5017716;28;20061;-89
2021/12/23 05:50:21;;;;;;;53.10;28.50;;;7.10;99.90;;;;;;5017603;28;20042;-89
2021/12/23 05:52:48;;;;;;;56.60;31.70;;;7.00;99.90;;;;;;5021943;28;20055;-89
2021/12/23 05:55:17;;;;;;;61.13;31.48;;;6.90;99.90;;;;;;5035801;28;20056;-89
2021/12/23 05:57:44;;;;;;;60.03;30.80;;;7.00;99.90;;;;;;5037683;28;20054;-89
2021/12/23 06:00:15;;;;;;;53.30;28.90;;;7.20;99.90;;;;;;5037816;28;20057;-88
2021/12/23 06:02:42;;;;;;;53.80;28.02;;;7.00;99.90;;;;;;5037543;28;20045;-89
2021/12/23 06:05:11;;;;;;;55.97;30.58;;;7.10;99.90;;;;;;5036107;28;20419;-89
2021/12/23 06:07:38;;;;;;;53.20;30.30;;;7.00;99.90;;;;;;5036974;28;20045;-90
2021/12/23 06:10:06;;;;;;;53.65;29.27;;;7.00;99.90;;;;;;5019006;28;20056;-89
2021/12/23 06:12:35;;;;;;;53.60;30.58;;;7.00;99.90;;;;;;5018284;28;20821;-88
2021/12/23 06:15:03;;;;;;;58.58;31.83;;;7.10;99.90;;;;;;5017305;28;20041;-90
2021/12/23 06:17:30;;;;;;;60.63;31.52;;;7.10;99.90;;;;;;5017033;28;20103;-89
2021/12/23 06:19:57;;;;;;;57.50;31.17;;;7.10;99.90;;;;;;5017294;28;20089;-89
2021/12/23 06:22:26;;;;;;;49.85;27.60;;;7.10;99.90;;;;;;5017304;28;20046;-90
2021/12/23 06:24:53;;;;;;;52.80;27.50;;;7.20;99.90;;;;;;5015804;28;20129;-88
2021/12/23 06:27:21;;;;;;;50.33;27.73;;;6.10;99.90;;;;;;5016810;28;20488;-88
2021/12/23 06:29:48;;;;;;;55.28;28.25;;;7.30;99.90;;;;;;5020563;28;20450;-89
2021/12/23 06:32:15;;;;;;;48.08;28.33;;;7.30;99.90;;;;;;5036666;28;20562;-90
2021/12/23 06:34:45;;;;;;;54.40;27.33;;;7.20;99.90;;;;;;5035755;28;20050;-88
2021/12/23 06:37:12;;;;;;;54.08;30.02;;;7.20;99.90;;;;;;5036766;28;20045;-88
2021/12/23 06:39:41;;;;;;;50.72;27.55;;;7.20;99.90;;;;;;5036329;28;20483;-88
2021/12/23 06:42:09;;;;;;;55.05;29.58;;;7.20;99.90;;;;;;5020620;28;20518;-88
2021/12/23 06:44:36;;;;;;;55.42;31.60;;;7.20;99.90;;;;;;5036409;28;20049;-88
2021/12/23 06:47:03;;;;;;;59.25;31.80;;;7.20;99.90;;;;;;5036368;28;20049;-88
2021/12/23 06:49:31;;;;;;;56.30;31.67;;;7.10;99.90;;;;;;5036171;28;20068;-89
2021/12/23 06:52:00;;;;;;;60.67;29.90;;;7.00;99.90;;;;;;5035289;28;20092;-88
2021/12/23 06:54:27;;;;;;;50.10;26.27;;;7.10;99.90;;;;;;5018546;28;20045;-88
2021/12/23 06:56:56;;;;;;;58.67;28.55;;;7.30;99.90;;;;;;5036469;28;20049;-88
2021/12/23 06:59:23;;;;;;;60.25;31.48;;;7.40;99.90;;;;;;5036448;28;20084;-88
2021/12/23 07:01:50;;;;;;;54.67;28.55;;;7.30;99.90;;;;;;5019759;28;20566;-88
2021/12/23 07:04:20;;;;;;;53.65;28.10;;;7.40;99.90;;;;;;5016631;28;20116;-87
2021/12/23 07:06:58;;;;;;;61.47;33.13;;;7.40;99.90;;;;;;5017160;28;20073;-88
2021/12/23 07:09:25;;;;;;;58.95;29.55;;;6.70;99.90;;;;;;5023088;28;20076;-89
2021/12/23 07:11:53;;;;;;;48.75;28.85;;;7.40;99.90;;;;;;5036187;28;20061;-87
2021/12/23 07:14:21;;;;;;;59.10;30.88;;;7.50;99.90;;;;;;5036709;28;20060;-88
2021/12/23 07:16:48;;;;;;;54.53;31.87;;;7.40;99.90;;;;;;5036147;28;20057;-87
2021/12/23 07:19:15;;;;;;;62.38;32.63;;;7.30;99.90;;;;;;5049753;28;20041;-87
2021/12/23 07:21:42;;;;;;;65.38;33.03;;;7.30;99.90;;;;;;5051878;28;20053;-85
2021/12/23 07:24:10;;;;;;;66.03;34.17;;;7.20;99.90;;;;;;5049276;28;20049;-86
2021/12/23 07:26:37;;;;;;;53.85;28.40;;;7.20;99.90;;;;;;5035336;28;20050;-87
2021/12/23 07:29:04;;;;;;;59.67;30.15;;;7.30;99.90;;;;;;5017544;28;20045;-87
2021/12/23 07:31:33;;;;;;;52.65;27.98;;;7.40;99.90;;;;;;5033754;28;20384;-88
2021/12/23 07:34:00;;;;;;;51.50;27.90;;;7.50;99.90;;;;;;5035675;28;20107;-88
2021/12/23 07:36:28;;;;;;;59.95;31.33;;;7.50;99.90;;;;;;5035461;28;20083;-89
2021/12/23 07:38:56;;;;;;;54.63;29.40;;;7.60;99.90;;;;;;5036506;28;20103;-88
2021/12/23 07:41:23;;;;;;;55.05;26.73;;;7.60;99.90;;;;;;5018551;28;20049;-89
2021/12/23 07:43:58;;;;;;;59.10;31.60;;;7.60;99.90;;;;;;5015680;28;20120;-88
2021/12/23 07:46:27;;;;;;;56.22;29.92;;;7.60;99.90;;;;;;5015631;28;20072;-89
2021/12/23 07:48:57;;;;;;;58.85;29.95;;;7.60;99.90;;;;;;5016010;28;20054;-87
2021/12/23 07:51:26;;;;;;;64.22;31.05;;;7.60;99.90;;;;;;5032043;28;20054;-88
2021/12/23 07:53:54;;;;;;;54.72;28.55;;;7.50;99.90;;;;;;5035616;28;20057;-87
2021/12/23 07:56:22;;;;;;;66.30;32.50;;;7.40;99.90;;;;;;5033427;28;20047;-90
2021/12/23 07:58:50;;;;;;;57.90;31.95;;;7.40;99.90;;;;;;5014923;28;20558;-88
2021/12/23 08:01:18;;;;;;;62.60;28.65;;;7.30;99.90;;;;;;5023684;28;20096;-88
2021/12/23 08:03:46;;;;;;;62.60;31.17;;;7.40;99.90;;;;;;5014388;28;20136;-88
2021/12/23 08:06:15;;;;;;;59.85;30.00;;;7.50;99.90;;;;;;5015099;28;20050;-88
2021/12/23 08:08:42;;;;;;;55.25;28.73;;;7.60;99.90;;;;;;5016826;28;20058;-88
2021/12/23 08:11:10;;;;;;;59.53;30.38;;;7.50;99.90;;;;;;5015070;28;20196;-89
2021/12/23 08:13:37;;;;;;;63.72;32.05;;;7.60;99.90;;;;;;5028728;28;20107;-88
2021/12/23 08:16:05;;;;;;;58.78;30.48;;;7.50;99.90;;;;;;5024721;28;20049;-90
2021/12/23 08:18:33;;;;;;;56.35;31.73;;;7.40;99.90;;;;;;5016843;28;20045;-88
2021/12/23 08:21:01;;;;;;;63.47;31.20;;;7.40;99.90;;;;;;5018387;28;20053;-89
2021/12/23 08:23:30;;;;;;;64.72;31.92;;;7.50;99.90;;;;;;5035403;28;20054;-90
2021/12/23 08:26:02;;;;;;;63.65;32.22;;;7.40;99.90;;;;;;5035432;28;20431;-89
2021/12/23 08:28:29;;;;;;;62.65;32.13;;;7.30;99.90;;;;;;5034431;28;20049;-89
2021/12/23 08:30:59;;;;;;;60.35;32.80;;;7.40;99.90;;;;;;5034621;28;20519;-89
2021/12/23 08:33:26;;;;;;;66.22;34.65;;;7.40;99.90;;;;;;5034094;28;20056;-89
2021/12/23 08:35:53;;;;;;;62.15;32.67;;;7.30;99.90;;;;;;5034114;28;20046;-89
2021/12/23 08:38:20;;;;;;;58.75;32.60;;;7.30;99.90;;;;;;5034464;28;20451;-90
2021/12/23 08:40:49;;;;;;;59.83;31.15;;;7.60;99.90;;;;;;5034418;28;20056;-89
2021/12/23 08:43:16;;;;;;;60.40;31.02;;;7.30;99.90;;;;;;5030304;28;20046;-88
2021/12/23 08:45:43;;;;;;;59.95;30.23;;;7.40;99.90;;;;;;5019925;28;20104;-87
2021/12/23 08:48:10;;;;;;;59.47;30.83;;;7.40;99.90;;;;;;5024880;28;20050;-87
2021/12/23 08:50:37;;;;;;;61.60;31.75;;;7.80;99.90;;;;;;5028118;28;20515;-91
2021/12/23 08:53:05;;;;;;;63.95;33.08;;;7.40;99.90;;;;;;4987762;28;20123;-87
2021/12/23 08:55:33;;;;;;;64.57;34.17;;;7.40;99.90;;;;;;4958136;28;20049;-87
2021/12/23 08:58:04;;;;;;;67.40;31.90;;;7.40;99.90;;;;;;5019664;28;20045;-89
2021/12/23 09:00:33;;;;;;;58.47;30.77;;;7.50;99.90;;;;;;5034189;28;20048;-88
2021/12/23 09:03:00;;;;;;;;;;;7.50;99.90;;;;;;5038030;28;20041;-90
2021/12/23 09:05:28;;;;;;;58.28;30.38;;;7.40;99.90;;;;;;5038849;28;19933;-90
2021/12/23 09:11:03;;;;;;;63.30;32.22;;;7.70;99.90;;;;;;5028870;28;20053;-91
2021/12/23 09:13:35;;;;;;;62.63;29.13;;;7.70;99.90;;;;;;4962662;28;20053;-92
2021/12/23 09:16:11;;;;;;;59.85;30.80;;;7.90;99.90;;;;;;5034680;28;20476;-90
2021/12/23 09:18:39;;;;;;;60.72;29.20;;;7.60;99.90;;;;;;5031051;28;20058;-90
2021/12/23 09:21:07;;;;;;;55.28;28.58;;;7.60;99.90;;;;;;5048498;28;20097;-89
2021/12/23 09:26:25;;;;;;;56.95;30.73;;;7.80;99.90;;;;;;5042559;28;20069;-90
2021/12/23 09:29:01;;;;;;;53.70;30.42;;;7.80;99.90;;;;;;5040268;28;20045;-91
2021/12/23 09:34:13;;;;;;;61.55;30.80;;;7.80;99.90;;;;;;5033781;28;20407;-91
2021/12/23 09:36:43;;;;;;;58.42;30.55;;;7.80;99.90;;;;;;5036961;28;20045;-90
2021/12/23 09:39:21;;;;;;;57.85;30.40;;;7.90;99.90;;;;;;5032141;28;20041;-90
2021/12/23 09:42:04;;;;;;;62.53;29.80;;;7.90;99.90;;;;;;5027958;28;20132;-89
2021/12/23 09:44:33;;;;;;;59.03;31.85;;;8.00;99.90;;;;;;5040742;28;20049;-90
2021/12/23 09:49:31;;;;;;;63.28;29.58;;;7.90;99.90;;;;;;5048219;28;19924;-88
2021/12/23 09:52:04;;;;;;;55.90;30.52;;;7.90;99.90;;;;;;5046473;28;20045;-92
2021/12/23 09:54:34;;;;;;;60.97;30.85;;;8.00;99.90;;;;;;5047399;28;20084;-91
2021/12/23 09:57:04;;;;;;;67.78;35.25;;;7.90;99.90;;;;;;5114516;22;20503;-92
2021/12/23 10:00:32;;;;;;;63.85;32.95;;;8.00;99.90;;;;;;5035222;28;20052;-92
2021/12/23 10:42:22;;;;;;;;;;;;;;;;;;;;;
2021/12/23 10:45:25;;;;;;;;;;;;;;;;;;;;;
2021/12/23 11:02:36;;;;;;;67.30;31.15;;;8.60;99.90;;;;;;4779099;29;20879;-91
2021/12/23 11:05:15;;;;;;;75.00;33.25;;;10.00;99.90;;;;;;4824865;29;20167;-89
2021/12/23 11:07:59;;;;;;;58.55;29.17;;;9.20;99.90;;;;;;4876822;28;20069;-89
2021/12/23 11:10:53;;;;;;;65.40;34.67;;;8.90;99.90;;;;;;4875268;28;20035;-88
2021/12/23 11:39:44;;;;;;;60.90;30.17;;;9.10;99.90;;;;;;5046637;28;20135;-90
2021/12/23 11:42:17;;;;;;;55.92;30.52;;;9.20;99.90;;;;;;5050004;28;20045;-90
2021/12/23 11:44:45;;;;;;;62.67;31.80;;;9.40;99.90;;;;;;5048008;28;20120;-91
2021/12/23 11:47:15;;;;;;;62.90;32.67;;;9.30;99.90;;;;;;5047304;28;20049;-89
2021/12/23 11:53:16;;;;;;;60.03;32.92;;;11.10;99.90;;;;;;5048054;28;20156;-91
2021/12/23 11:55:52;;;;;;;73.07;35.83;;;9.30;99.90;;;;;;5059334;28;21458;-91
2021/12/23 11:58:46;;;;;;;65.80;32.92;;;9.50;99.90;;;;;;5055437;28;20049;-92
2021/12/23 12:01:21;;;;;;;70.38;34.22;;;9.40;99.90;;;;;;5030681;28;20048;-92
2021/12/23 12:03:57;;;;;;;58.55;31.95;;;9.70;99.90;;;;;;5054269;28;20072;-91
2021/12/23 12:06:28;;;;;;;61.83;33.10;;;10.60;99.90;;;;;;5048320;28;20080;-90
2021/12/23 12:09:46;;;;;;;61.95;32.17;;;9.70;99.90;;;;;;5047007;28;20070;-91
2021/12/23 12:12:16;;;;;;;61.17;32.33;;;8.20;99.90;;;;;;5255586;22;20032;31
2021/12/23 12:14:51;;;;;;;62.75;32.67;;;9.60;99.90;;;;;;4992493;28;20409;-92
2021/12/23 12:17:49;;;;;;;59.75;34.00;;;9.50;99.90;;;;;;4986110;28;20053;-91
2021/12/23 12:20:26;;;;;;;61.00;33.15;;;9.50;99.90;;;;;;4992184;28;20054;-89
2021/12/23 12:23:02;;;;;;;59.03;32.78;;;9.50;99.90;;;;;;4991528;28;20070;-90
2021/12/23 12:25:56;;;;;;;58.15;31.13;;;9.20;99.90;;;;;;4993060;28;20057;-91
2021/12/23 12:31:51;;;;;;;69.55;33.25;;;9.80;99.90;;;;;;4985858;28;20210;-90
2021/12/23 12:34:42;;;;;;;56.95;30.98;;;9.70;99.90;;;;;;4992444;28;20057;-91
2021/12/23 12:37:10;;;;;;;56.45;32.22;;;9.70;99.90;;;;;;4999907;28;20046;-91
2021/12/23 12:39:40;;;;;;;52.87;30.40;;;9.70;99.90;;;;;;4988562;28;20046;-90
2021/12/23 12:42:12;;;;;;;56.97;31.67;;;9.70;99.90;;;;;;5317225;22;20089;-93
2021/12/23 12:45:22;;;;;;;55.55;29.55;;;9.70;99.90;;;;;;5006461;28;20053;-90
2021/12/23 12:47:55;;;;;;;54.72;31.08;;;10.00;99.90;;;;;;4949091;28;20046;-90
2021/12/23 12:51:04;;;;;;;52.33;30.15;;;10.00;99.90;;;;;;4950570;28;20065;-92
2021/12/23 12:53:51;;;;;;;55.28;29.85;;;10.30;99.90;;;;;;4977078;28;20077;-91
2021/12/23 12:56:22;;;;;;;53.28;30.25;;;9.90;99.90;;;;;;5008424;28;20420;-91
2021/12/23 12:58:55;;;;;;;54.15;30.55;;;10.10;99.90;;;;;;5009469;28;20062;-91
2021/12/23 13:01:33;;;;;;;52.72;28.38;;;9.90;99.90;;;;;;5008945;28;20048;-92
2021/12/23 13:04:04;;;;;;;47.38;26.33;;;10.10;99.90;;;;;;5019469;28;20111;-89
2021/12/23 13:06:39;;;;;;;48.33;27.08;;;9.40;99.90;;;;;;5015763;28;20136;-91
2021/12/23 13:09:12;;;;;;;44.88;25.80;;;10.10;99.90;;;;;;5017303;28;20084;-91
2021/12/23 13:12:00;;;;;;;51.30;27.50;;;8.60;99.90;;;;;;5015403;28;20148;-92
2021/12/23 13:15:08;;;;;;;;;;;;;;;;;;;;;
2021/12/23 13:17:46;;;;;;;49.75;27.45;;;10.20;99.90;;;;;;4994815;28;20539;-91
2021/12/23 13:20:19;;;;;;;46.63;27.25;;;10.20;99.90;;;;;;5004392;28;20564;-91
2021/12/23 13:23:32;;;;;;;51.90;29.90;;;10.40;99.90;;;;;;4995228;28;20042;-92
2021/12/23 13:26:06;;;;;;;43.25;24.13;;;9.20;99.90;;;;;;4911773;29;20166;-90
2021/12/23 13:29:27;;;;;;;42.25;24.85;;;10.10;99.90;;;;;;4986312;28;20106;-89
2021/12/23 13:34:55;;;;;;;45.25;26.38;;;10.30;99.90;;;;;;4984021;28;20049;-93
2021/12/23 13:47:03;;;;;;;45.60;27.55;;;10.30;99.90;;;;;;5009937;23;20048;-92
2021/12/23 13:49:46;;;;;;;43.63;25.02;;;10.30;99.90;;;;;;5422894;22;20048;-92
2021/12/23 13:52:31;;;;;;;46.05;26.90;;;10.40;99.90;;;;;;4935746;28;20106;-90
2021/12/23 13:55:07;;;;;;;46.05;27.85;;;9.40;99.90;;;;;;4932033;28;20046;-90
2021/12/23 13:57:38;;;;;;;41.88;25.50;;;9.90;99.90;;;;;;4943392;28;20050;-88
2021/12/23 14:03:46;;;;;;;;;;;;;;;;;;;;;
2021/12/23 14:06:17;;;;;;;38.60;23.05;;;12.20;99.90;;;;;;4981485;28;20058;-93
2021/12/23 14:11:25;;;;;;;51.35;30.08;;;10.50;99.90;;;;;;5107652;22;20058;-92
2021/12/23 14:13:55;;;;;;;44.25;25.83;;;10.60;99.90;;;;;;5008024;22;20050;-93
2021/12/23 14:25:50;;;;;;;41.75;25.48;;;10.60;99.90;;;;;;4995262;28;20409;-90
2021/12/23 14:28:24;;;;;;;35.70;22.55;;;10.80;99.90;;;;;;4993632;28;20052;-89
2021/12/23 14:30:54;;;;;;;45.78;25.70;;;10.60;99.90;;;;;;4997907;28;20272;-89
2021/12/23 14:33:24;;;;;;;39.63;24.92;;;9.20;99.90;;;;;;4996733;28;20460;-88
2021/12/23 14:36:10;;;;;;;40.58;24.85;;;10.50;99.90;;;;;;5002609;28;20054;-90
2021/12/23 14:39:12;;;;;;;36.28;22.58;;;10.60;99.90;;;;;;5013747;28;20454;-90
2021/12/23 14:41:44;;;;;;;42.20;24.13;;;10.40;99.90;;;;;;5002302;28;20064;-88
2021/12/23 14:44:26;;;;;;;42.00;24.58;;;10.60;99.90;;;;;;4993997;28;20046;-88
2021/12/23 14:47:07;;;;;;;37.08;22.20;;;10.60;99.90;;;;;;5002461;28;20046;-90
2021/12/23 14:55:21;;;;;;;40.50;23.88;;;11.90;99.90;;;;;;4850657;28;20361;-90
2021/12/23 14:57:51;;;;;;;38.10;21.58;;;10.50;99.90;;;;;;4896317;28;20070;-92
2021/12/23 15:01:11;;;;;;;38.42;22.48;;;10.70;99.90;;;;;;4892864;28;20043;-92
2021/12/23 15:04:04;;;;;;;34.83;21.42;;;10.90;99.90;;;;;;4899710;28;20051;-90
2021/12/23 15:07:28;;;;;;;33.10;21.00;;;10.40;99.90;;;;;;4894083;28;20110;-90
2021/12/23 15:10:28;;;;;;;37.45;21.23;;;10.60;99.90;;;;;;4904060;28;20075;-90
2021/12/23 15:12:59;;;;;;;33.22;20.27;;;10.40;99.90;;;;;;4881900;28;20065;-91
2021/12/23 15:15:35;;;;;;;36.65;21.15;;;10.40;99.90;;;;;;4889693;28;20048;-91
2021/12/23 15:18:26;;;;;;;33.42;21.33;;;10.90;99.90;;;;;;4897057;28;20109;-91
2021/12/23 15:21:09;;;;;;;31.33;20.63;;;10.10;99.90;;;;;;4900717;28;20047;-88